createdAt,value
2023-01-02T06:17:39.481Z,13.13
2023-01-02T06:27:39.318Z,13.39
2023-01-02T06:37:39.296Z,13.57
2023-01-02T06:47:39.361Z,13.83
2023-01-02T06:57:39.368Z,14.01
2023-01-02T07:07:39.435Z,14.13
2023-01-02T07:17:39.539Z,14.09
2023-01-02T07:27:39.355Z,14.04
2023-01-02T07:37:39.428Z,14.19
2023-01-02T07:47:39.446Z,14.06
2023-01-02T07:57:39.425Z,13.78
2023-01-02T08:07:44.769Z,13.67
2023-01-02T08:17:39.463Z,13.72
2023-01-02T08:27:39.439Z,13.73
2023-01-02T08:37:39.417Z,13.63
2023-01-02T08:47:39.385Z,13.73
2023-01-02T08:57:39.521Z,13.77
2023-01-02T09:07:39.453Z,13.73
2023-01-02T09:17:39.463Z,13.93
2023-01-02T09:27:39.396Z,14.10
2023-01-02T09:37:39.403Z,14.34
2023-01-02T09:47:39.474Z,14.14
2023-01-02T09:57:39.503Z,14.17
2023-01-02T10:07:39.407Z,14.37
2023-01-02T10:17:39.447Z,14.30
2023-01-02T10:27:39.618Z,14.21
2023-01-02T10:37:39.460Z,14.01
2023-01-02T10:47:39.530Z,12.43
2023-01-02T10:57:39.475Z,12.21
2023-01-02T11:07:39.602Z,12.56
2023-01-02T11:17:39.616Z,13.13
2023-01-02T11:27:39.565Z,13.02
2023-01-02T11:37:39.639Z,12.97
2023-01-02T11:47:39.617Z,11.00
2023-01-02T11:57:39.587Z,10.63
2023-01-02T12:07:39.634Z,11.40
2023-01-02T12:17:39.592Z,11.37
2023-01-02T12:27:39.682Z,11.32
2023-01-02T12:37:39.741Z,11.38
2023-01-02T12:47:39.724Z,11.33
2023-01-02T12:57:39.784Z,10.75
2023-01-02T13:07:39.817Z,10.61
2023-01-02T13:17:39.793Z,10.48
2023-01-02T13:27:39.854Z,10.31
2023-01-02T13:37:39.746Z,10.18
2023-01-02T13:47:39.841Z,10.12
2023-01-02T13:57:39.766Z,10.06
2023-01-02T14:07:39.815Z,10.00
2023-01-02T14:17:39.754Z,9.85
2023-01-02T14:27:39.874Z,9.60
2023-01-02T14:37:40.012Z,9.01
2023-01-02T14:47:40.377Z,8.72
2023-01-02T14:57:39.919Z,8.57
2023-01-02T15:07:39.981Z,8.52
2023-01-02T15:17:39.895Z,8.54
2023-01-02T15:27:40.041Z,8.51
2023-01-02T15:37:39.995Z,8.49
2023-01-02T15:47:39.899Z,8.46
2023-01-02T15:57:40.128Z,8.55
2023-01-02T16:07:40.123Z,8.52
2023-01-02T16:17:40.009Z,8.78
2023-01-02T16:27:40.051Z,8.72
2023-01-02T16:37:40.187Z,8.72
2023-01-02T16:47:40.123Z,8.57
2023-01-02T16:57:40.096Z,8.50
2023-01-02T17:07:40.067Z,8.59
2023-01-02T17:17:40.120Z,8.57
2023-01-02T17:27:40.157Z,8.52
2023-01-02T17:37:40.147Z,8.58
2023-01-02T17:48:00.751Z,8.65
2023-01-02T17:57:40.125Z,8.61
2023-01-02T18:07:40.149Z,8.59
2023-01-02T18:17:40.016Z,8.47
2023-01-02T18:27:40.032Z,8.52
2023-01-02T18:37:40.114Z,8.54
2023-01-02T18:47:40.278Z,8.55
2023-01-02T18:57:40.233Z,8.55
2023-01-02T19:07:40.321Z,8.49
2023-01-02T19:17:40.564Z,8.60
